地図

経路データ

SID SEASON NUMBER BASIN SUBBASIN NAME ISO_TIME NATURE LAT LON WMO_WIND WMO_PRES WMO_AGENCY TRACK_TYPE DIST2LAND LANDFALL IFLAG USA_AGENCY USA_ATCF_ID USA_LAT USA_LON USA_RECORD USA_STATUS USA_WIND USA_PRES USA_SSHS USA_R34_NE USA_R34_SE USA_R34_SW USA_R34_NW USA_R50_NE USA_R50_SE USA_R50_SW USA_R50_NW USA_R64_NE USA_R64_SE USA_R64_SW USA_R64_NW USA_POCI USA_ROCI USA_RMW USA_EYE TOKYO_LAT TOKYO_LON TOKYO_GRADE TOKYO_WIND TOKYO_PRES TOKYO_R50_DIR TOKYO_R50_LONG TOKYO_R50_SHORT TOKYO_R30_DIR TOKYO_R30_LONG TOKYO_R30_SHORT TOKYO_LAND CMA_LAT CMA_LON CMA_CAT CMA_WIND CMA_PRES HKO_LAT HKO_LON HKO_CAT HKO_WIND HKO_PRES NEWDELHI_LAT NEWDELHI_LON NEWDELHI_GRADE NEWDELHI_WIND NEWDELHI_PRES NEWDELHI_CI NEWDELHI_DP NEWDELHI_POCI REUNION_LAT REUNION_LON REUNION_TYPE REUNION_WIND REUNION_PRES REUNION_TNUM REUNION_CI REUNION_RMW REUNION_R34_NE REUNION_R34_SE REUNION_R34_SW REUNION_R34_NW REUNION_R50_NE REUNION_R50_SE REUNION_R50_SW REUNION_R50_NW REUNION_R64_NE REUNION_R64_SE REUNION_R64_SW REUNION_R64_NW BOM_LAT BOM_LON BOM_TYPE BOM_WIND BOM_PRES BOM_TNUM BOM_CI BOM_RMW BOM_R34_NE BOM_R34_SE BOM_R34_SW BOM_R34_NW BOM_R50_NE BOM_R50_SE BOM_R50_SW BOM_R50_NW BOM_R64_NE BOM_R64_SE BOM_R64_SW BOM_R64_NW BOM_ROCI BOM_POCI BOM_EYE BOM_POS_METHOD BOM_PRES_METHOD NADI_LAT NADI_LON NADI_CAT NADI_WIND NADI_PRES WELLINGTON_LAT WELLINGTON_LON WELLINGTON_WIND WELLINGTON_PRES DS824_LAT DS824_LON DS824_STAGE DS824_WIND DS824_PRES TD9636_LAT TD9636_LON TD9636_STAGE TD9636_WIND TD9636_PRES TD9635_LAT TD9635_LON TD9635_WIND TD9635_PRES TD9635_ROCI NEUMANN_LAT NEUMANN_LON NEUMANN_CLASS NEUMANN_WIND NEUMANN_PRES MLC_LAT MLC_LON MLC_CLASS MLC_WIND MLC_PRES USA_GUST BOM_GUST BOM_GUST_PER REUNION_GUST REUNION_GUST_PER USA_SEAHGT USA_SEARAD_NE USA_SEARAD_SE USA_SEARAD_SW USA_SEARAD_NW STORM_SPEED STORM_DIR
1973061S10155 1973 31 SP EA MADGE 1973-03-02 00:00:00 NR -9.80000 155.200 spur-split 276 276 ________O_____ -1 -9.80000 155.200 30 997 2 152
1973061S10155 1973 31 SP EA MADGE 1973-03-02 03:00:00 NR -9.86970 155.242 spur-split 283 266 ________P_____ -1 -9.86970 155.242 30 997 1 173
1973061S10155 1973 31 SP EA MADGE 1973-03-02 06:00:00 NR -9.94154 155.228 spur-split 283 283 ________P_____ -1 -9.94154 155.228 30 997 6 275
1973061S10155 1973 31 SP EA MADGE 1973-03-02 07:00:00 NR -9.83307 154.820 spur-split 312 312 ________P_O___ -1 -9.96634 155.201 30 997 -9.30000 153.300 2 16 281
1973061S10155 1973 31 SP EA MADGE 1973-03-02 09:00:00 NR -9.79779 154.443 spur-split 350 350 ________P_P___ -1 -10.0177 155.099 30 997 -9.35804 153.130 2 11 273
1973061S10155 1973 31 SP EA MADGE 1973-03-02 11:00:00 NR -9.79382 154.080 25 1000 bom spur-split 369 335 ________P_P___ -1 -10.0718 154.922 30 997 -9.42323 152.957 2 16 277
1973061S10155 1973 31 SP EA MADGE 1973-03-02 12:00:00 TS -9.70431 153.648 spur-split 324 279 O_______O_P___ jtwc_sh SH271973 -9.40000 152.900 40 0 -10.1000 154.800 30 997 -9.46077 152.870 2 14 270
1973061S10155 1973 31 SP EA MADGE 1973-03-02 15:00:00 TS -9.79222 153.161 spur-split 279 234 P_______P_P___ SH271973 -9.57510 152.590 40 0 -10.1976 154.297 30 997 -9.60398 152.597 2 10 257
1973061S10155 1973 31 SP EA MADGE 1973-03-02 17:00:00 TS -9.88523 152.821 25 1001 bom spur-split 234 223 P_______P_P___ SH271973 -9.71641 152.393 40 0 -10.2897 153.878 30 997 -9.73397 152.404 2 11 254
1973061S10155 1973 31 SP EA MADGE 1973-03-02 18:00:00 TS -9.94027 152.639 spur-split 212 200 O_______P_P___ jtwc_sh SH271973 -9.80000 152.300 40 0 -10.3490 153.654 30 997 -9.81203 152.304 2 10 245
1973061S10155 1973 31 SP EA MADGE 1973-03-02 19:00:00 TS -10.0270 152.511 spur-split 200 175 P_______P_O___ SH271973 -9.89424 152.210 40 0 -10.4195 153.424 30 997 -9.90000 152.200 2 10 233
1973061S10155 1973 31 SP EA MADGE 1973-03-02 21:00:00 TS -10.2332 152.250 spur-split 175 142 P_______P_P___ SH271973 -10.1124 152.030 42 0 -10.6008 152.959 30 997 -10.1071 151.982 2 10 229
1973061S10155 1973 31 SP EA MADGE 1973-03-02 23:00:00 TS -10.4819 151.975 25 1002 bom spur-split 142 131 P_______P_P___ SH271973 -10.3640 151.823 44 0 -10.8476 152.510 30 997 -10.3521 151.745 2 11 227
1973061S10155 1973 31 SP EA MADGE 1973-03-03 00:00:00 TS -10.6217 151.829 spur-split 120 88 O_______O_P___ jtwc_sh SH271973 -10.5000 151.700 45 0 -11.0000 152.300 30 997 -10.4870 151.618 2 13 225
1973061S10155 1973 31 SP EA MADGE 1973-03-03 03:00:00 TS -11.0879 151.364 spur-split 94 86 P_______P_P___ SH271973 -10.9199 151.260 52 0 -11.5785 151.744 32 995 -10.9333 151.193 2 14 224
1973061S10155 1973 31 SP EA MADGE 1973-03-03 06:00:00 TS -11.6330 150.842 spur-split 109 109 O_______P_P___ jtwc_sh SH271973 -11.4000 150.700 60 0 -12.3041 151.280 35 993 -11.4277 150.689 2 15 223
1973061S10155 1973 31 SP EA MADGE 1973-03-03 07:00:00 TS -11.8285 150.656 spur-split 127 127 P_______P_O___ SH271973 -11.5719 150.492 61 0 -12.5702 151.140 35 992 -11.6000 150.500 2 16 228
1973061S10155 1973 31 SP EA MADGE 1973-03-03 09:00:00 TS -12.1814 150.219 spur-split 167 167 P_______P_P___ SH271973 -11.9350 150.037 65 1 -13.1277 150.876 37 991 -11.9645 150.089 2 17 233
1973061S10155 1973 31 SP EA MADGE 1973-03-03 11:00:00 TS -12.5213 149.727 25 1001 bom spur-split 208 219 P_______P_P___ SH271973 -12.3114 149.549 68 1 -13.7069 150.624 39 990 -12.3485 149.635 2 20 237
1973061S10155 1973 31 SP EA MADGE 1973-03-03 12:00:00 TS -12.7124 149.370 spur-split 240 240 O_______O_P_O_ jtwc_sh SH271973 -12.5000 149.300 70 1 -14.0000 150.500 40 990 -12.5433 149.395 2 -13.8000 148.700 TC 25 1001 23 238
1973061S10155 1973 31 SP EA MADGE 1973-03-03 15:00:00 TS -13.3257 148.409 spur-split 342 291 P_________P_P_ SH271973 -13.0724 148.550 75 1 -13.1187 148.641 2 -13.9955 148.088 TC 27 1000 21 237
1973061S10155 1973 31 SP EA MADGE 1973-03-03 18:00:00 TS -13.8444 147.608 spur-split 281 252 O_________P_O_ jtwc_sh SH271973 -13.6000 147.800 80 1 -13.6440 147.860 2 -14.2000 147.500 TC 30 999 19 237
1973061S10155 1973 31 SP EA MADGE 1973-03-03 19:00:00 TS -14.0142 147.325 spur-split 242 194 P_________O_P_ SH271973 -13.7581 147.563 79 1 -13.8000 147.600 2 -14.2717 147.313 TC 30 998 17 242
1973061S10155 1973 31 SP EA MADGE 1973-03-03 21:00:00 TS -14.2445 146.835 spur-split 184 136 P_________P_P_ SH271973 -14.0447 147.100 77 1 -14.0772 147.123 2 -14.4145 146.937 TC 32 998 15 246
1973061S10155 1973 31 SP EA MADGE 1973-03-03 23:00:00 TS -14.4255 146.372 30 998 bom spur-split 136 111 P_____O___P_P_ SH271973 -14.2915 146.636 75 1 -14.6000 146.100 20 30 998 2.50000 -14.3208 146.645 2 -14.5445 146.529 TC 34 998 45 45 15 249
1973061S10155 1973 31 SP EA MADGE 1973-03-04 00:00:00 TS -14.5073 146.132 spur-split 102 39 O_____P___P_O_ jtwc_sh SH271973 -14.4000 146.400 75 1 -14.6636 145.849 20 28 997 -14.4307 146.403 2 -14.6000 146.300 TC 35 998 15 253
1973061S10155 1973 31 SP EA MADGE 1973-03-04 02:30:00 TS -14.6868 145.503 25 997 bom spur-split 39 31 P_____O___P_P_ SH271973 -14.6451 145.803 70 1 -14.8000 145.200 20 25 997 -14.6727 145.786 2 -14.7059 145.638 TC 32 997 45 45 15 254
1973061S10155 1973 31 SP EA MADGE 1973-03-04 03:00:00 TS -14.7173 145.373 spur-split 31 0 P_____P___P_P_ SH271973 -14.6871 145.680 70 1 -14.8202 145.064 20 25 997 -14.7157 145.660 2 -14.7225 145.495 TC 32 997 16 259
1973061S10155 1973 31 SP EA MADGE 1973-03-04 06:00:00 TS -14.8667 144.557 spur-split 0 0 O_____P___P_O_ jtwc_sh SH271973 -14.9000 144.900 65 1 -14.8903 144.193 20 25 997 -14.9385 144.874 2 -14.8000 144.600 TC 30 997 16 260
1973061S10155 1973 31 SP EA MADGE 1973-03-04 07:00:00 TS -14.9086 144.274 spur-split 0 0 P_____P___O_P_ SH271973 -14.9640 144.620 62 0 -14.8989 143.886 20 25 997 -15.0000 144.600 2 -14.8249 144.303 TC 30 997 17 262
1973061S10155 1973 31 SP EA MADGE 1973-03-04 09:00:00 TS -14.9807 143.683 spur-split 0 0 P_____P___P_P_ SH271973 -15.0723 144.030 57 0 -14.9029 143.253 20 25 997 -15.1234 143.997 2 -14.8648 143.700 TC 30 997 17 264
1973061S10155 1973 31 SP EA MADGE 1973-03-04 11:00:00 TS -15.0364 143.075 25 998 bom spur-split 0 0 P_____O___P_P_ SH271973 -15.1608 143.413 52 0 -14.9000 142.600 20 25 998 -15.2194 143.367 2 -14.8916 143.097 TC 30 997 45 45 18 265
1973061S10155 1973 31 SP EA MADGE 1973-03-04 12:00:00 TS -15.0600 142.768 spur-split 0 0 O_____P__OP_O_ jtwc_sh SH271973 -15.2000 143.100 50 0 -14.9016 142.262 20 29 997 -14.9000 142.300 TC 35 998 -15.2581 143.047 2 -14.9000 142.800 TC 30 998 18 266
1973061S10155 1973 31 SP EA MADGE 1973-03-04 14:00:00 TS -15.1041 142.145 40 996 bom spur-split 0 0 P_____O__PP_P_ SH271973 -15.2854 142.453 46 0 -14.9000 141.600 30 40 996 3.00000 -14.9023 141.721 TC 37 996 -15.3194 142.408 2 -14.9077 142.215 TC 31 996 55 55 18 266
1973061S10155 1973 31 SP EA MADGE 1973-03-04 15:00:00 TS -15.1220 141.838 spur-split 0 0 P_____P__PP_P_ SH271973 -15.3225 142.128 45 0 -14.9014 141.295 30 41 995 -14.9029 141.435 TC 38 995 -15.3429 142.092 2 -14.9073 141.927 TC 32 995 17 267
1973061S10155 1973 31 SP EA MADGE 1973-03-04 18:00:00 TS -15.1572 140.967 spur-split 63 63 O_____P__PP_O_ jtwc_sh SH271973 -15.4000 141.200 40 0 -14.9080 140.483 30 44 992 -14.9031 140.606 TC 42 993 -15.3902 141.183 2 -14.9000 141.100 TC 35 993 17 268
1973061S10155 1973 31 SP EA MADGE 1973-03-04 19:00:00 TS -15.1628 140.698 spur-split 92 92 P_____P__PO_P_ SH271973 -15.4111 140.922 39 0 -14.9095 140.243 30 45 991 -14.9028 140.344 TC 43 992 -15.4000 140.900 2 -14.9025 140.831 TC 37 992 15 269
1973061S10155 1973 31 SP EA MADGE 1973-03-04 21:00:00 TS -15.1669 140.195 spur-split 143 143 P_____P__PP_P_ SH271973 -15.4146 140.405 37 0 -14.9089 139.800 30 47 989 -14.9017 139.849 TC 46 990 -15.4242 140.385 2 -14.9073 140.313 TC 42 990 14 270
1973061S10155 1973 31 SP EA MADGE 1973-03-04 23:00:00 TS -15.1606 139.733 50 988 bom spur-split 195 195 P_____O__PP_P_ SH271973 -15.4051 139.928 35 0 -14.9000 139.400 30 50 988 3.50000 -14.9005 139.402 TC 48 988 -15.4352 139.904 2 -14.9056 139.828 TC 47 988 69 69 13 271
1973061S10155 1973 31 SP EA MADGE 1973-03-05 00:00:00 TS -15.1578 139.515 spur-split 197 170 O_____P__OP_O_ jtwc_sh SH271973 -15.4000 139.700 35 0 -14.9101 139.214 30 50 987 -14.9000 139.200 TC 50 988 -15.4365 139.675 2 -14.9000 139.600 TC 50 988 12 271
1973061S10155 1973 31 SP EA MADGE 1973-03-05 03:00:00 TS -15.1532 138.903 spur-split 170 144 P_____P__PP_P_ SH271973 -15.3997 139.028 35 0 -14.9175 138.712 30 52 986 -14.8870 138.673 TC 52 986 -15.4280 139.022 2 -14.8873 138.955 TC 50 988 11 273
1973061S10155 1973 31 SP EA MADGE 1973-03-05 06:00:00 TS -15.1013 138.334 55 985 bom spur-split 138 134 O_____O__OP_O_ jtwc_sh SH271973 -15.4000 138.400 35 0 -14.8000 138.200 30 55 985 4.00000 -14.8000 138.200 TC 55 985 -15.4078 138.403 2 -14.8000 138.400 TC 50 989 75 75 11 277
1973061S10155 1973 31 SP EA MADGE 1973-03-05 07:00:00 TS -15.0632 138.141 spur-split 130 116 P_____P__PO_P_ SH271973 -15.4025 138.194 34 0 -14.7057 137.991 30 55 985 -14.7368 138.039 TC 55 985 -15.4000 138.200 2 -14.7315 138.228 TC 49 989 11 283
1973061S10155 1973 31 SP EA MADGE 1973-03-05 09:00:00 TS -14.9739 137.765 55 985 bom spur-split 116 74 P_____O__PP_P_ SH271973 -15.4073 137.793 32 -1 -14.5000 137.600 30 55 985 4.00000 -14.5723 137.715 TC 55 985 -15.3991 137.775 2 -14.5573 137.912 TC 47 989 75 75 11 284
1973061S10155 1973 31 SP EA MADGE 1973-03-05 12:00:00 TS -14.8487 137.243 60 985 bom spur-split 59 55 O_____O__OP_O_ jtwc_sh SH271973 -15.4000 137.200 30 -1 -14.3000 137.200 30 60 985 4.00000 -14.3000 137.200 TC 55 985 -15.3921 137.157 2 -14.3000 137.500 TC 45 990 84 84 11 281
1973061S10155 1973 31 SP EA MADGE 1973-03-05 15:00:00 TS -14.7474 136.604 60 985 bom spur-split 44 44 P_____O__PP_P_ SH271973 -15.3649 136.593 30 -1 -14.1000 136.100 30 60 985 4.00000 -14.0851 136.593 TC 55 985 -15.3698 136.560 2 -14.1996 137.188 TC 45 990 84 84 11 281
1973061S10155 1973 31 SP EA MADGE 1973-03-05 18:00:00 TS -14.6371 136.131 50 985 bom spur-split 49 44 O_____O__OP_O_ jtwc_sh SH271973 -15.3000 136.000 30 -1 -13.9000 136.000 30 50 985 3.50000 -13.9000 136.000 TC 55 985 -15.3228 135.986 2 -14.1000 136.800 TC 45 991 69 69 10 284
1973061S10155 1973 31 SP EA MADGE 1973-03-05 19:00:00 TS -14.5894 135.957 spur-split 44 0 P_____P__PO_P_ SH271973 -15.2749 135.808 29 -1 -13.8279 135.896 30 46 986 -13.8379 135.834 TC 51 987 -15.3000 135.800 2 -14.0209 136.596 TC 44 991 11 286
1973061S10155 1973 31 SP EA MADGE 1973-03-05 21:00:00 TS -14.4886 135.592 40 990 bom spur-split 0 0 P_____O__PP_P_ SH271973 -15.2149 135.435 27 -1 -13.7000 135.600 30 40 990 3.00000 -13.7244 135.530 TC 45 991 -15.2417 135.428 2 -13.8354 136.122 TC 42 991 55 55 11 285
1973061S10155 1973 31 SP EA MADGE 1973-03-06 00:00:00 TS -14.3549 135.048 30 998 bom spur-split 0 0 O_____O__OP_O_ jtwc_sh SH271973 -15.1000 134.900 25 -1 -13.6000 135.100 20 30 998 -13.6000 135.100 TC 35 998 -15.1295 134.888 2 -13.6000 135.400 TC 40 992 45 45 10 283
1973061S10155 1973 31 SI WA MADGE 1973-03-06 03:00:00 TS -14.2617 134.539 spur-split 0 0 P_____P__PP_P_ SH271973 -14.9573 134.393 25 -1 -13.5590 134.589 20 27 -13.5460 134.623 TC -14.9958 134.368 2 -13.5547 134.870 TC 35 992 10 279
1973061S10155 1973 31 SI WA MADGE 1973-03-06 06:00:00 TS -14.1972 134.043 spur-split 0 0 O_____P__PP_O_ jtwc_sh SH271973 -14.8000 133.900 25 -1 -13.5755 134.068 20 24 -13.5577 134.128 TC -14.8498 133.865 2 -13.6000 134.400 TC 30 993 10 277
1973061S10155 1973 31 SI WA MADGE 1973-03-06 07:00:00 TS -14.1787 133.875 spur-split 0 0 P_____P__PO_P_ SH271973 -14.7500 133.731 25 -1 -13.5909 133.892 20 23 -13.5728 133.959 TC -14.8000 133.700 2 -13.6083 134.236 TC 30 993 10 276
1973061S10155 1973 31 SI WA MADGE 1973-03-06 09:00:00 TS -14.1428 133.541 spur-split 0 0 P_____P__PP_P_ SH271973 -14.6499 133.393 25 -1 -13.6329 133.540 20 22 -13.6156 133.618 TC -14.6735 133.395 2 -13.6349 133.907 TC 30 993 10 276
1973061S10155 1973 31 SI WA MADGE 1973-03-06 11:30:00 TS -14.1052 133.126 20 bom spur-split 0 0 P_____O__PP_P_ SH271973 -14.5250 132.980 25 -1 -13.7000 133.100 20 20 -13.6849 133.187 TC -14.5090 133.025 2 -13.6870 133.487 TC 30 993 45 45 10 275
1973061S10155 1973 31 SI WA MADGE 1973-03-06 12:00:00 TS -14.0976 133.043 spur-split 0 0 O_____P__OP_O_ jtwc_sh SH271973 -14.5000 132.900 25 -1 -13.7087 133.009 20 20 -13.7000 133.100 TC -14.4771 132.951 2 -13.7000 133.400 TC 30 994 10 276
1973061S10155 1973 31 SI WA MADGE 1973-03-06 15:00:00 TS -14.0429 132.556 spur-split 0 0 P_____P__PP_P_ SH271973 -14.3121 132.480 25 -1 -13.7737 132.457 20 20 -13.7580 132.574 TC -14.3093 132.492 2 -13.7925 132.850 TC 27 994 10 274
1973061S10155 1973 31 SI WA MADGE 1973-03-06 18:00:00 TS -14.0355 132.040 spur-split 0 0 O_____P__PP_O_ jtwc_sh SH271973 -14.2000 132.000 25 -1 -13.8625 131.912 20 20 -13.8398 132.042 TC -14.2105 131.986 2 -13.9000 132.300 TC 25 995 10 269
1973061S10155 1973 31 SI WA MADGE 1973-03-06 19:00:00 TS -14.0494 131.853 spur-split 0 0 P_____P__PO_P_ SH271973 -14.1996 131.795 24 -1 -13.8981 131.736 20 20 -13.8735 131.865 TC -14.2000 131.800 2 -13.9254 132.125 TC 25 995 12 263
1973061S10155 1973 31 SI WA MADGE 1973-03-06 21:00:00 TS -14.1068 131.451 spur-split 0 0 P_____P__PP_P_ SH271973 -14.2476 131.338 22 -1 -13.9790 131.395 20 20 -13.9518 131.514 TC -14.2377 131.339 2 -13.9774 131.785 TC 25 995 12 259
1973061S10155 1973 31 SI WA MADGE 1973-03-06 23:30:00 TS -14.2216 130.937 20 bom spur-split 0 0 P_____O__PP_P_ SH271973 -14.3705 130.723 20 -1 -14.1000 131.000 20 20 -14.0725 131.084 TC -14.3429 130.715 2 -14.0732 131.379 TC 25 995 45 45 12 257
1973061S10155 1973 31 SI WA MADGE 1973-03-07 00:00:00 TS -14.2487 130.840 spur-split 0 0 O_____P__OP_O_ jtwc_sh SH271973 -14.4000 130.600 20 -1 -14.1228 130.950 20 20 -14.1000 131.000 TC -14.3697 130.588 2 -14.1000 131.300 TC 25 996 12 251
1973061S10155 1973 31 SI WA MADGE 1973-03-07 03:00:00 TS -14.4466 130.264 spur-split 0 0 P_____P__PP_P_ SH271973 -14.6002 129.848 20 -1 -14.2775 130.697 20 20 -14.3071 130.517 TC -14.5525 129.842 2 -14.3424 130.835 TC 25 996 11 249
1973061S10155 1973 31 SI WA MADGE 1973-03-07 06:00:00 TS -14.6598 129.741 spur-split 0 0 O_____P__PP_O_ jtwc_sh SH271973 -14.8000 129.200 20 -1 -14.4700 130.412 20 20 -14.5460 130.047 TC -14.7425 129.185 2 -14.6000 130.400 TC 25 997 11 247
1973061S10155 1973 31 SI WA MADGE 1973-03-07 07:00:00 TS -14.7208 129.584 spur-split 0 0 P_____P__PO_P_ SH271973 -14.8446 129.035 20 -1 -14.5441 130.282 20 20 -14.6276 129.891 TC -14.8000 129.000 2 -14.6640 130.264 TC 26 997 9 248
1973061S10155 1973 31 SI WA MADGE 1973-03-07 09:00:00 TS -14.8287 129.300 spur-split 22 15 P_____P__PP_P_ SH271973 -14.9147 128.775 20 -1 -14.7088 129.932 20 20 -14.7870 129.578 TC -14.8744 128.741 2 -14.7723 130.000 TC 30 997 9 249
1973061S10155 1973 31 SI WA MADGE 1973-03-07 10:00:00 TS -14.8797 129.161 20 999 bom spur-split 15 0 P_____O__PP_P_ SH271973 -14.9440 128.671 20 -1 -14.8000 129.700 20 20 999 -14.8626 129.420 TC -14.9089 128.636 2 -14.8186 129.869 TC 31 997 45 45 9 250
1973061S10155 1973 31 SI WA MADGE 1973-03-07 12:00:00 TS -14.9801 128.872 spur-split 0 0 O_____P__OP_O_ jtwc_sh SH271973 -15.0000 128.500 20 -1 -15.0066 129.069 20 23 999 -15.0000 129.100 TC 30 999 -14.9742 128.466 2 -14.9000 129.600 TC 35 998 9 250
1973061S10155 1973 31 SI WA MADGE 1973-03-07 13:00:00 TS -15.0288 128.737 25 999 bom spur-split 0 0 P_____O__PP_P_ SH271973 -15.0332 128.424 20 -1 -15.1000 128.800 20 25 999 -15.0619 128.923 TC 30 998 -15.0057 128.394 2 -14.9390 129.456 TC 34 998 45 45 7 248
1973061S10155 1973 31 SI WA MADGE 1973-03-07 15:00:00 TS -15.1172 128.518 spur-split 0 0 P_____P__PP_P_ SH271973 -15.0998 128.300 20 -1 -15.2544 128.514 20 25 999 -15.1737 128.570 TC 32 998 -15.0682 128.267 2 -15.0075 129.157 TC 32 998 7 248
1973061S10155 1973 31 SI WA MADGE 1973-03-07 16:00:00 TS -15.1545 128.416 25 999 bom spur-split 0 0 P_____O__PP_P_ SH271973 -15.1332 128.241 20 -1 -15.3000 128.400 80 25 999 -15.2221 128.402 TC 33 997 -15.0998 128.205 2 -15.0387 129.005 TC 31 998 45 45 7 254
1973061S10155 1973 31 SI WA MADGE 1973-03-07 18:00:00 TS -15.2114 128.188 spur-split 10 0 O_____P__OP_O_ jtwc_sh SH271973 -15.2000 128.100 20 -1 -15.3030 128.056 80 25 997 -15.3000 128.100 TC 35 997 -15.1654 128.074 2 -15.1000 128.700 TC 30 999 7 256
1973061S10155 1973 31 SI WA MADGE 1973-03-07 19:00:00 TS -15.2362 128.072 25 997 bom spur-split 0 0 P_____O__PO_P_ SH271973 -15.2307 128.000 20 -1 -15.3000 127.900 80 25 997 -15.3253 127.985 TC 34 997 -15.2000 128.000 2 -15.1307 128.545 TC 30 999 45 45 7 256
1973061S10155 1973 31 SI WA MADGE 1973-03-07 21:00:00 TS -15.2956 127.839 spur-split 0 0 P_____P__PP_P_ SH271973 -15.2925 127.772 20 -1 -15.3691 127.681 80 25 998 -15.3572 127.792 TC 32 998 -15.2699 127.779 2 -15.1925 128.235 TC 30 999 7 255
1973061S10155 1973 31 SI WA MADGE 1973-03-07 22:00:00 TS -15.3253 127.725 25 999 bom spur-split 0 0 P_____O__PP_P_ SH271973 -15.3255 127.650 20 -1 -15.4000 127.600 80 25 999 -15.3694 127.702 TC 31 998 -15.3058 127.662 2 -15.2254 128.084 TC 30 999 45 45 7 255
1973061S10155 1973 31 SI WA MADGE 1973-03-08 00:00:00 TS -15.3797 127.502 spur-split 0 0 O_____P__OP_O_ jtwc_sh SH271973 -15.4000 127.400 20 -1 -15.3974 127.493 80 25 999 -15.4000 127.500 TC 30 1000 -15.3808 127.422 2 -15.3000 127.800 TC 30 999 7 255
1973061S10155 1973 31 SI WA MADGE 1973-03-08 01:00:00 TS -15.4122 127.380 25 1000 bom spur-split 0 0 P_____O__PP_P_ SH271973 -15.4443 127.278 20 -1 -15.4000 127.400 80 25 1000 -15.4198 127.357 TC 30 999 -15.4203 127.300 2 -15.3442 127.669 TC 30 999 45 45 8 254
1973061S10155 1973 31 SI WA MADGE 1973-03-08 03:00:00 TS -15.4939 127.099 spur-split 0 0 P_____P__PP_P_ SH271973 -15.5425 127.035 22 -1 -15.4613 126.998 80 25 999 -15.4702 127.042 TC 32 998 -15.5044 127.057 2 -15.4424 127.427 TC 30 999 8 252
1973061S10155 1973 31 SI WA MADGE 1973-03-08 04:00:00 TS -15.5396 126.962 25 999 bom spur-split 0 0 P_____O__PP_P_ SH271973 -15.5946 126.918 23 -1 -15.5000 126.800 80 25 999 -15.5044 126.885 TC 33 998 -15.5496 126.937 2 -15.4945 127.315 TC 30 999 45 45 8 249
1973061S10155 1973 31 SI WA MADGE 1973-03-08 06:00:00 TS -15.6317 126.732 spur-split 0 0 O_____P__OP_O_ jtwc_sh SH271973 -15.7000 126.700 25 -1 -15.5429 126.584 80 25 997 -15.6000 126.600 TC 35 997 -15.6471 126.708 2 -15.6000 127.100 TC 30 999 7 245
1973061S10155 1973 31 SI WA MADGE 1973-03-08 07:00:00 TS -15.6851 126.633 25 997 bom spur-split 0 0 P_____O__PO_P_ SH271973 -15.7473 126.605 25 -1 -15.6000 126.500 80 25 997 -15.6687 126.494 TC 35 997 -15.7000 126.600 2 -15.6473 126.994 TC 30 998 45 45 7 235
1973061S10155 1973 31 SI WA MADGE 1973-03-08 09:00:00 TS -15.8262 126.448 spur-split 0 0 P_____P__PP_P_ SH271973 -15.8424 126.435 25 -1 -15.8741 126.292 80 25 997 -15.8348 126.320 TC 35 997 -15.8212 126.413 2 -15.7424 126.792 TC 30 998 7 231
1973061S10155 1973 31 SI WA MADGE 1973-03-08 10:00:00 TS -15.8979 126.363 25 998 bom spur-split 0 0 P_____O__PP_P_ SH271973 -15.8920 126.356 25 -1 -16.0000 126.200 80 25 998 -15.9248 126.245 TC 35 997 -15.8863 126.325 2 -15.7920 126.694 TC 30 998 45 45 6 231
1973061S10155 1973 31 SI WA MADGE 1973-03-08 12:00:00 TS -16.0149 126.205 spur-split 0 0 O_____P__OP_O_ jtwc_sh SH271973 -16.0000 126.200 25 -1 -16.0671 126.069 80 25 998 -16.1000 126.100 TC 35 998 -16.0223 126.158 2 -15.9000 126.500 TC 30 998 6 233
1973061S10155 1973 31 SI WA MADGE 1973-03-08 13:00:00 TS -16.0741 126.120 25 998 bom spur-split 0 0 P_____O__PP_P_ SH271973 -16.0609 126.117 25 -1 -16.1000 126.000 80 25 998 -16.1724 126.014 TC 34 998 -16.0921 126.077 2 -15.9583 126.397 TC 30 998 45 45 6 231
1973061S10155 1973 31 SI WA MADGE 1973-03-08 15:00:00 TS -16.2178 125.942 spur-split 0 0 P_____P__PP_P_ SH271973 -16.1925 125.950 25 -1 -16.2971 125.798 80 25 998 -16.3075 125.842 TC 32 998 -16.2325 125.919 2 -16.0850 126.192 TC 30 998 7 230
1973061S10155 1973 31 SI WA MADGE 1973-03-08 16:00:00 TS -16.2916 125.854 25 999 bom spur-split 0 0 P_____O__PP_P_ SH271973 -16.2612 125.867 25 -1 -16.4000 125.700 80 25 999 -16.3721 125.759 TC 31 998 -16.3019 125.841 2 -16.1533 126.092 TC 30 998 45 45 6 229
1973061S10155 1973 31 SI WA MADGE 1973-03-08 18:00:00 TS -16.4292 125.690 spur-split 0 0 O_____P__OP_O_ jtwc_sh SH271973 -16.4000 125.700 25 -1 -16.5388 125.561 80 28 999 -16.5000 125.600 TC 30 999 -16.4362 125.682 2 -16.3000 125.900 TC 30 998 6 228
1973061S10155 1973 31 SI WA MADGE 1973-03-08 19:00:00 TS -16.4980 125.615 30 999 bom spur-split 0 0 P_____O__PO_P_ SH271973 -16.4693 125.619 25 -1 -16.6000 125.500 80 30 999 -16.5692 125.535 TC 30 999 -16.5000 125.600 2 -16.3802 125.816 TC 30 998 45 45 6 226
1973061S10155 1973 31 SI WA MADGE 1973-03-08 21:00:00 TS -16.6401 125.464 spur-split 0 0 P_____P__PP_P_ SH271973 -16.6074 125.457 27 -1 -16.7333 125.367 80 30 999 -16.7074 125.415 TC 30 999 -16.6349 125.433 2 -16.5499 125.657 TC 30 998 6 226
1973061S10155 1973 31 SI WA MADGE 1973-03-08 22:00:00 TS -16.7100 125.388 30 1000 bom spur-split 0 0 P_____O__PP_P_ SH271973 -16.6745 125.375 28 -1 -16.8000 125.300 80 30 1000 -16.7745 125.352 TC 30 999 -16.7007 125.349 2 -16.6357 125.577 TC 30 998 45 45 6 229
1973061S10155 1973 31 SI WA MADGE 1973-03-09 00:00:00 TS -16.8444 125.224 spur-split 0 0 O_____P__OP_O_ jtwc_sh SH271973 -16.8000 125.200 30 -1 -16.9412 125.167 80 30 1000 -16.9000 125.200 TC 30 1000 -16.8251 125.176 2 -16.8000 125.400 TC 30 999 6 231
1973061S10155 1973 31 SI WA MADGE 1973-03-09 01:00:00 TS -16.9110 125.132 30 1000 bom spur-split 0 0 P_____O__PP_P_ SH271973 -16.8662 125.108 30 -1 -17.0000 125.100 80 30 1000 -16.9663 125.095 TC 30 999 -16.8821 125.088 2 -16.8855 125.290 TC 30 998 45 45 7 236
1973061S10155 1973 31 SI WA MADGE 1973-03-09 03:00:00 TS -17.0260 124.941 spur-split 0 0 P_____P__PP_P_ SH271973 -16.9875 124.915 30 -1 -17.0668 125.005 80 30 998 -17.0876 124.858 TC 32 998 -16.9816 124.904 2 -17.0451 125.050 TC 30 998 7 240
1973061S10155 1973 31 SI WA MADGE 1973-03-09 04:00:00 TS -17.0742 124.833 30 998 bom spur-split 0 0 P_____O__PP_P_ SH271973 -17.0370 124.813 30 -1 -17.1000 124.900 80 30 998 -17.1371 124.734 TC 33 998 -17.0225 124.808 2 -17.1117 124.929 TC 30 997 45 45 7 250
1973061S10155 1973 31 SI WA MADGE 1973-03-09 06:00:00 TS -17.1471 124.584 30 997 bom spur-split 0 0 O_____O__OP_O_ jtwc_sh SH271973 -17.1000 124.600 30 -1 -17.2000 124.500 80 30 997 2.50000 -17.2000 124.500 TC 35 997 -17.0825 124.606 2 -17.2000 124.700 TC 30 997 45 45 7 256
1973061S10155 1973 31 SI WA MADGE 1973-03-09 07:00:00 TS -17.1559 124.502 30 996 bom spur-split 0 0 P_____O__PO_P_ SH271973 -17.1088 124.492 30 -1 -17.2000 124.500 80 30 996 2.50000 -17.2061 124.413 TC 35 996 -17.1000 124.500 2 -17.2118 124.613 TC 30 996 45 45 5 272
1973061S10155 1973 31 SI WA MADGE 1973-03-09 09:00:00 TS -17.1387 124.308 spur-split 0 0 P_____P__PP_P_ SH271973 -17.0874 124.265 32 -1 -17.2072 124.325 80 33 995 -17.1798 124.257 TC 37 996 -17.0829 124.280 2 -17.1873 124.457 TC 30 996 6 278
1973061S10155 1973 31 SI WA MADGE 1973-03-09 10:00:00 TS -17.1170 124.203 35 995 bom spur-split 0 0 P_____O__PP_P_ SH271973 -17.0629 124.147 33 -1 -17.2000 124.200 30 35 995 3.00000 -17.1549 124.179 TC 38 995 -17.0611 124.165 2 -17.1603 124.379 TC 30 995 49 49 6 285
1973061S10155 1973 31 SI WA MADGE 1973-03-09 12:00:00 TS -17.0604 123.994 spur-split 0 0 O_____P__OP_O_ jtwc_sh SH271973 -17.0000 123.900 35 0 -17.1621 124.037 30 35 995 -17.1000 124.000 TC 40 995 -17.0002 123.925 2 -17.1000 124.200 TC 30 995 7 286
1973061S10155 1973 31 SI WA MADGE 1973-03-09 13:00:00 TS -17.0259 123.869 35 995 bom spur-split 0 0 P_____O__PP_P_ SH271973 -16.9645 123.772 35 0 -17.1000 123.900 30 35 995 3.00000 -17.0807 123.884 TC 40 994 -16.9648 123.801 2 -17.0807 124.084 TC 31 994 49 49 8 287
1973061S10155 1973 31 SI WA MADGE 1973-03-09 14:00:00 TS -16.9835 123.728 35 995 bom spur-split 10 10 P_____O__PP_P_ SH271973 -16.9249 123.641 36 0 -17.0000 123.700 30 35 995 3.00000 -17.0613 123.757 TC 40 994 -16.9285 123.674 2 -17.0613 123.957 TC 33 994 49 49 8 286
1973061S10155 1973 31 SI WA MADGE 1973-03-09 15:00:00 TS -16.9549 123.601 spur-split 15 15 P_____P__PP_P_ SH271973 -16.8850 123.507 37 0 -16.9812 123.600 30 35 995 -17.0425 123.622 TC 40 994 -16.8933 123.544 2 -17.0425 123.822 TC 35 994 8 281
1973061S10155 1973 31 SI WA MADGE 1973-03-09 16:00:00 TS -16.9348 123.470 35 995 bom spur-split 22 11 P_____O__PP_P_ SH271973 -16.8484 123.372 38 0 -17.0000 123.500 30 35 995 3.00000 -17.0255 123.483 TC 40 993 -16.8610 123.412 2 -17.0255 123.683 TC 36 994 49 49 8 278
1973061S10155 1973 31 SI WA MADGE 1973-03-09 17:00:00 TS -16.9155 123.322 35 994 bom spur-split 11 10 P_____O__PP_P_ SH271973 -16.8188 123.236 39 0 -17.0000 123.300 30 35 994 3.00000 -17.0110 123.341 TC 40 993 -16.8335 123.277 2 -17.0110 123.541 TC 38 994 49 49 8 278
1973061S10155 1973 31 SI WA MADGE 1973-03-09 18:00:00 TS -16.8946 123.180 spur-split 10 0 O_____P__OP_O_ jtwc_sh SH271973 -16.8000 123.100 40 0 -16.9553 123.141 30 37 993 -17.0000 123.200 TC 40 993 -16.8125 123.140 2 -17.0000 123.400 TC 40 994 8 278
1973061S10155 1973 31 SI WA MADGE 1973-03-09 19:00:00 TS -16.8782 123.046 40 993 bom spur-split 0 0 P_____O__PO_P_ SH271973 -16.7969 122.969 40 0 -16.9000 123.000 30 40 993 3.00000 -16.9890 123.069 TC 40 992 -16.8000 123.000 2 40 -16.9864 123.269 TC 40 993 55 55 8 272
1973061S10155 1973 31 SI WA MADGE 1973-03-09 21:00:00 TS -16.8796 122.769 spur-split 0 0 P_____P__PP_P_ SH271973 -16.8199 122.708 42 0 -16.8825 122.647 30 40 990 -16.9774 122.807 TC 42 992 -16.8080 122.735 2 40 -16.9699 123.007 TC 42 993 8 268
1973061S10155 1973 31 SI WA MADGE 1973-03-09 22:00:00 TS -16.8925 122.633 40 990 bom spur-split 0 0 P_____O__PP_P_ SH271973 -16.8424 122.575 43 0 -16.9000 122.500 30 40 990 3.00000 -16.9787 122.675 TC 43 992 -16.8207 122.600 2 40 -16.9708 122.874 TC 43 992 55 55 8 261
1973061S10155 1973 31 SI WA MADGE 1973-03-10 00:00:00 TS -16.9375 122.380 spur-split 10 10 O_____P__OP_O_ jtwc_sh SH271973 -16.9000 122.300 45 0 -16.9612 122.358 30 40 991 -17.0000 122.400 TC 45 992 -16.8638 122.320 2 40 -17.0000 122.600 TC 45 992 7 259
1973061S10155 1973 31 SI WA MADGE 1973-03-10 01:00:00 TS -16.9621 122.254 40 992 bom spur-split 11 11 P_____O__PP_P_ SH271973 -16.9170 122.163 45 0 -17.0000 122.300 30 40 992 3.00000 3.00000 -17.0139 122.264 TC 45 991 -16.8941 122.174 2 40 -17.0302 122.461 TC 45 991 55 55 8 257
1973061S10155 1973 31 SI WA MADGE 1973-03-10 03:00:00 TS -17.0230 121.988 spur-split 33 33 P_____P__PP_P_ SH271973 -16.9623 121.880 47 0 -17.0586 122.145 30 43 990 -17.0623 121.980 TC 47 990 -16.9725 121.871 2 40 -17.1198 122.172 TC 47 990 8 256
1973061S10155 1973 31 SI WA MADGE 1973-03-10 04:00:00 TS -17.0645 121.837 45 990 bom spur-split 48 48 P_____O__PP_P_ SH271973 -16.9961 121.729 48 0 -17.1000 122.000 30 45 990 3.00000 -17.0986 121.829 TC 48 989 -17.0205 121.712 2 40 -17.1757 122.021 TC 48 990 64 64 10 252
1973061S10155 1973 31 SI WA MADGE 1973-03-10 06:00:00 TS -17.1770 121.477 spur-split 75 75 O_____P__OP_O_ jtwc_sh SH271973 -17.1000 121.400 50 0 -17.2280 121.486 30 48 988 -17.2000 121.500 TC 50 988 -17.1343 121.377 2 40 -17.3000 121.700 TC 50 989 11 251
1973061S10155 1973 31 SI WA MADGE 1973-03-10 07:00:00 TS -17.2487 121.280 50 988 bom spur-split 95 95 P_____O__PO_P_ SH271973 -17.1771 121.220 -1 -17.3000 121.200 30 50 988 3.50000 -17.2715 121.315 TC 50 987 -17.2000 121.200 2 40 -17.3662 121.526 TC 50 988 69 69 12 248
1973061S10155 1973 31 SI WA MADGE 1973-03-10 09:00:00 TS -17.4142 120.873 spur-split 129 129 P_____P__PP_P_ SH271973 -17.3699 120.830 -1 -17.4255 120.696 30 50 986 -17.4426 120.915 TC 52 986 -17.3700 120.809 2 -17.5075 121.158 TC 52 987 13 246
1973061S10155 1973 31 SI WA MADGE 1973-03-10 10:00:00 TS -17.5054 120.672 50 986 bom spur-split 148 148 P_____O__PP_P_ SH271973 -17.4782 120.624 -1 -17.5000 120.500 30 50 986 3.50000 -17.5329 120.709 TC 53 985 -17.4659 120.603 2 -17.5771 120.970 TC 53 986 69 69 12 243
1973061S10155 1973 31 SI WA MADGE 1973-03-10 12:00:00 TS -17.6953 120.296 spur-split 178 178 O_____P__OP_O_ jtwc_sh SH271973 -17.7000 120.200 -1 -17.7023 120.302 30 50 984 -17.7000 120.300 TC 55 984 -17.6696 120.177 2 -17.7000 120.600 TC 55 985 12 242
1973061S10155 1973 31 SI WA MADGE 1973-03-10 13:00:00 TS -17.7869 120.109 50 984 bom spur-split 191 191 P_____O__PP_P_ SH271973 -17.8132 119.979 -1 -17.8000 120.200 30 50 984 3.50000 -17.7718 120.108 TC 55 983 -17.7734 119.960 2 -17.7499 120.430 TC 55 984 69 69 12 245
1973061S10155 1973 31 SI WA MADGE 1973-03-10 15:00:00 TS -17.9549 119.705 spur-split 217 217 P_____P__PP_P_ SH271973 -18.0376 119.528 -1 -17.9546 119.816 30 53 981 -17.8948 119.735 TC 57 981 -17.9751 119.526 2 -17.8298 120.100 TC 57 982 13 248
1973061S10155 1973 31 SI WA MADGE 1973-03-10 16:00:00 TS -18.0251 119.503 55 981 bom spur-split 224 216 P_____O__PP_P_ SH271973 -18.1396 119.307 -1 -18.0000 119.600 30 55 981 4.00000 -17.9423 119.553 TC 58 980 -18.0691 119.312 2 -17.8598 119.936 TC 58 981 75 75 12 254
1973061S10155 1973 31 SI WA MADGE 1973-03-10 18:00:00 TS -18.1237 119.104 spur-split 223 223 O_____P__OP_O_ jtwc_sh SH271973 -18.3000 118.900 -1 -18.0088 119.126 30 58 978 -18.0000 119.200 TC 60 978 -18.2335 118.897 2 -17.9000 119.600 TC 60 980 11 257
1973061S10155 1973 31 SI WA MADGE 1973-03-10 19:00:00 TS -18.1495 118.937 60 978 bom spur-split 224 213 P_____O__PO_P_ SH271973 -18.3476 118.730 -1 -18.0000 119.000 30 60 978 4.00000 -17.9955 119.035 TC 61 977 -18.3000 118.700 2 -17.9060 119.430 TC 61 979 84 84 9 262
1973061S10155 1973 31 SI WA MADGE 1973-03-10 20:00:00 TS -18.1626 118.803 60 977 bom spur-split 214 214 P_____O__PP_P_ SH271973 -18.3779 118.573 -1 -18.0000 119.000 30 60 977 4.00000 -17.9762 118.875 TC 63 976 -18.3386 118.538 2 -17.9047 119.257 TC 63 977 84 84 8 268
1973061S10155 1973 31 SI WA MADGE 1973-03-10 21:00:00 TS -18.1602 118.646 spur-split 218 218 P_____P__PP_P_ SH271973 -18.3946 118.427 -1 -17.9554 118.843 30 60 976 -17.9496 118.714 TC 65 975 -18.3670 118.385 2 -17.8997 119.080 TC 65 977 9 272
1973061S10155 1973 31 SI WA MADGE 1973-03-10 22:00:00 TS -18.1512 118.476 60 976 bom spur-split 221 221 P_____O__PP_P_ SH271973 -18.4014 118.286 -1 -17.9000 118.600 30 60 976 4.00000 -17.9231 118.551 TC 66 974 -18.3866 118.237 2 -17.8948 118.896 TC 66 976 84 84 10 272
1973061S10155 1973 31 SI WA MADGE 1973-03-11 00:00:00 TS -18.1467 118.142 spur-split 247 237 O_____P__OP_O_ jtwc_sh SH271973 -18.4000 118.000 -1 -17.8748 118.200 30 66 973 -17.9000 118.200 TC 70 973 -18.4051 117.951 2 -17.9000 118.500 TC 70 974 10 269
1973061S10155 1973 31 SI WA MADGE 1973-03-11 01:00:00 TS -18.1590 117.967 70 973 bom spur-split 241 241 P_____O__PP_P_ SH271973 -18.4029 117.855 -1 -17.9000 118.000 40 70 973 4.50000 4.50000 -17.9245 118.003 TC 70 972 -18.4068 117.808 2 -17.9167 118.284 TC 70 973 99 99 10 264
1973061S10155 1973 31 SI WA MADGE 1973-03-11 03:00:00 TS -18.2010 117.604 spur-split 251 251 P_____P__PP_P_ SH271973 -18.3995 117.552 -1 -18.0224 117.608 40 73 971 -18.0124 117.580 TC 72 970 -18.4023 117.510 2 -17.9700 117.822 TC 72 971 11 263
1973061S10155 1973 31 SI WA MADGE 1973-03-11 04:00:00 TS -18.2283 117.410 75 971 bom spur-split 256 253 P_____O__PP_P_ SH271973 -18.3970 117.386 -1 -18.1000 117.400 40 75 971 4.50000 -18.0703 117.358 TC 73 969 -18.3988 117.350 2 -18.0066 117.583 TC 73 970 104 104 12 262
1973061S10155 1973 31 SI WA MADGE 1973-03-11 06:00:00 TS -18.2883 116.987 spur-split 258 257 O_____P__OP_O_ jtwc_sh SH271973 -18.4000 117.000 -1 -18.2334 116.923 40 78 968 -18.2000 116.900 TC 75 968 -18.3963 116.997 2 -18.1000 117.100 TC 75 969 12 261
1973061S10155 1973 31 SI WA MADGE 1973-03-11 07:00:00 TS -18.3243 116.764 80 968 bom spur-split 257 246 P_____O__PO_P_ SH271973 -18.4084 116.768 -1 -18.3000 116.700 40 80 968 4.50000 -18.2686 116.680 TC 75 966 -18.4000 116.800 4 80 -18.1603 116.869 TC 76 968 110 110 13 259
1973061S10155 1973 31 SI WA MADGE 1973-03-11 09:00:00 TS -18.4116 116.310 spur-split 249 249 P_____P__PP_P_ SH271973 -18.4352 116.245 -1 -18.4409 116.403 40 80 965 -18.4146 116.230 TC 77 964 -18.4444 116.328 4 -18.2997 116.408 TC 80 966 14 259
1973061S10155 1973 31 SI WA MADGE 1973-03-11 10:00:00 TS -18.4554 116.062 80 965 bom spur-split 243 243 P_____O__PP_P_ SH271973 -18.4534 115.966 -1 -18.5000 116.200 40 80 965 5.00000 -18.4845 115.996 TC 78 963 -18.4696 116.072 4 -18.3713 116.175 TC 81 965 110 110 16 261
1973061S10155 1973 31 SI WA MADGE 1973-03-11 12:00:00 TS -18.5326 115.500 spur-split 266 266 O_____P__OP_O_ jtwc_sh SH271973 -18.5000 115.400 -1 -18.5724 115.468 40 80 962 -18.6000 115.500 TC 80 961 -18.5234 115.530 4 -18.5000 115.700 TC 85 963 16 262
1973061S10155 1973 31 SI WA MADGE 1973-03-11 13:00:00 TS -18.5654 115.218 80 961 bom spur-split 273 273 P_____O__PP_P_ SH271973 -18.5300 115.136 -1 -18.6000 115.100 40 80 961 5.00000 -18.6338 115.231 TC 80 960 -18.5511 115.248 4 -18.5472 115.458 TC 85 962 110 110 15 263
1973061S10155 1973 31 SI WA MADGE 1973-03-11 15:00:00 TS -18.6290 114.690 spur-split 301 301 P_____P__PP_P_ SH271973 -18.5996 114.608 -1 -18.6743 114.627 40 80 958 -18.6725 114.665 TC 82 958 -18.6058 114.669 4 -18.6222 114.965 TC 87 960 15 263
1973061S10155 1973 31 SI WA MADGE 1973-03-11 16:00:00 TS -18.6562 114.424 80 958 bom spur-split 309 309 P_____O__PP_P_ SH271973 -18.6354 114.341 -1 -18.7000 114.400 40 80 958 5.00000 -18.6829 114.375 TC 83 957 -18.6319 114.375 4 -18.6518 114.713 TC 88 959 110 110 16 265
1973061S10155 1973 31 SI WA MADGE 1973-03-11 18:00:00 TS -18.6962 113.865 spur-split 340 340 O_____P__OP_O_ jtwc_sh SH271973 -18.7000 113.800 -1 -18.6976 113.803 40 83 956 -18.7000 113.800 TC 85 956 -18.6794 113.789 4 -18.7000 114.200 TC 90 958 16 266
1973061S10155 1973 31 SI WA MADGE 1973-03-11 19:00:00 TS -18.7156 113.583 85 956 bom spur-split 360 359 P_____O__PO_P_ SH271973 -18.7249 113.517 -1 -18.7000 113.500 40 85 956 5.00000 -18.7190 113.528 TC 85 955 -18.7000 113.500 4 -18.7249 113.936 TC 90 957 119 119 16 265
1973061S10155 1973 31 SI WA MADGE 1973-03-11 21:00:00 TS -18.7585 113.030 spur-split 362 362 P_____P__PP_P_ SH271973 -18.7649 112.942 -1 -18.7691 112.953 40 85 955 -18.7571 112.993 TC 87 955 -18.7302 112.948 4 -18.7648 113.400 TC 92 956 16 266
1973061S10155 1973 31 SI WA MADGE 1973-03-11 22:00:00 TS -18.7761 112.757 85 955 bom spur-split 368 368 P_____O__PP_P_ SH271973 -18.7799 112.656 -1 -18.8000 112.700 40 85 955 5.00000 -18.7742 112.728 TC 88 954 -18.7428 112.672 4 -18.7799 113.131 TC 93 956 119 119 15 267
1973061S10155 1973 31 SI WA MADGE 1973-03-12 00:00:00 TS -18.7948 112.227 spur-split 394 394 O_____P__OP_O_ jtwc_sh SH271973 -18.8000 112.100 -1 -18.8053 112.236 40 88 954 -18.8000 112.200 TC 90 954 -18.7635 112.125 4 -18.8000 112.600 TC 95 955 15 268
1973061S10155 1973 31 SI WA MADGE 1973-03-12 01:00:00 TS -18.7990 111.967 90 954 bom spur-split 404 404 P_____O__PP_P_ SH271973 -18.8054 111.839 -1 -18.8000 112.000 40 90 954 5.50000 5.50000 -18.8056 111.928 TC 90 953 -18.7718 111.855 4 -18.8055 112.342 TC 95 954 124 124 15 269
1973061S10155 1973 31 SI WA MADGE 1973-03-12 03:00:00 TS -18.8022 111.449 spur-split 440 440 P_____P__PP_P_ SH271973 -18.8070 111.335 -1 -18.7999 111.480 40 90 953 -18.8073 111.385 TC 90 953 -18.7849 111.322 4 -18.8072 111.835 TC 95 954 15 270
1973061S10155 1973 31 SI WA MADGE 1973-03-12 04:00:00 TS -18.8017 111.190 90 953 bom spur-split 453 453 P_____O__PP_P_ SH271973 -18.8050 111.089 -1 -18.8000 111.200 40 90 953 5.50000 -18.8053 111.117 TC 90 952 -18.7899 111.060 4 -18.8052 111.587 TC 95 953 124 124 15 270
1973061S10155 1973 31 SI WA MADGE 1973-03-12 06:00:00 TS -18.7996 110.674 spur-split 488 488 O_____P__OP_O_ jtwc_sh SH271973 -18.8000 110.600 -1 -18.8000 110.598 40 90 952 -18.8000 110.600 TC 90 952 -18.7973 110.549 4 -18.8000 111.100 TC 95 953 15 270
1973061S10155 1973 31 SI WA MADGE 1973-03-12 07:00:00 TS -18.7999 110.418 90 952 bom spur-split 510 510 P_____O__PO_P_ SH271973 -18.7999 110.345 -1 -18.8000 110.300 40 90 952 5.50000 -18.7997 110.355 TC 90 952 -18.8000 110.300 2 40 -18.7998 110.864 TC 95 953 124 124 14 270
1973061S10155 1973 31 SI WA MADGE 1973-03-12 09:00:00 TS -18.7976 109.917 spur-split 550 550 P_____P__PP_P_ SH271973 -18.7999 109.835 -1 -18.8000 109.730 40 90 952 -18.7996 109.885 TC 90 952 -18.7864 109.816 2 -18.7996 110.400 TC 95 953 14 270
1973061S10155 1973 31 SI WA MADGE 1973-03-12 10:00:00 TS -18.7961 109.679 90 953 bom spur-split 566 566 P_____O__PP_P_ SH271973 -18.7999 109.584 -1 -18.8000 109.500 40 90 953 5.50000 -18.7996 109.656 TC 90 952 -18.7775 109.580 2 -18.7996 110.169 TC 95 953 124 124 13 270
1973061S10155 1973 31 SI WA MADGE 1973-03-12 12:00:00 TS -18.7920 109.244 spur-split 608 608 O_____P__OP_O_ jtwc_sh SH271973 -18.8000 109.100 -1 -18.7919 109.243 40 90 953 -18.8000 109.200 TC 90 953 -18.7601 109.121 2 -18.8000 109.700 TC 95 953 12 271
1973061S10155 1973 31 SI WA MADGE 1973-03-12 13:00:00 TS -18.7895 109.027 90 953 bom spur-split 625 625 P_____O__PP_P_ SH271973 -18.7945 108.872 -1 -18.8000 109.100 40 90 953 5.50000 -18.7972 108.969 TC 90 952 -18.7535 108.896 2 -18.7973 109.453 TC 95 953 124 124 13 270
1973061S10155 1973 31 SI WA MADGE 1973-03-12 15:00:00 TS -18.7966 108.561 spur-split 661 661 P_____P__PP_P_ SH271973 -18.7846 108.435 -1 -18.8771 108.581 40 90 953 -18.7922 108.507 TC 90 952 -18.7489 108.456 2 -18.7924 108.950 TC 95 953 13 269
1973061S10155 1973 31 SI WA MADGE 1973-03-12 16:00:00 TS -18.8007 108.326 90 953 bom spur-split 687 687 P_____O__PP_P_ SH271973 -18.7839 108.222 -1 -18.9000 108.300 40 90 953 5.50000 -18.7918 108.274 TC 90 952 -18.7527 108.239 2 -18.7920 108.697 TC 95 953 124 124 13 270
1973061S10155 1973 31 SI WA MADGE 1973-03-12 18:00:00 TS -18.8023 107.875 spur-split 724 724 O_____P__OP_O_ jtwc_sh SH271973 -18.8000 107.800 -1 -18.8362 107.836 40 90 952 -18.8000 107.800 TC 90 952 -18.7774 107.812 2 -18.8000 108.200 TC 95 953 13 270
1973061S10155 1973 31 SI WA MADGE 1973-03-12 19:00:00 TS -18.8056 107.645 90 952 bom spur-split 751 751 P_____O__PO_P_ SH271973 -18.8166 107.581 -1 -18.8000 107.600 40 90 952 5.50000 -18.8005 107.545 TC 90 952 -18.8000 107.600 4 -18.8002 107.963 TC 95 953 124 124 13 267
1973061S10155 1973 31 SI WA MADGE 1973-03-12 21:00:00 TS -18.8367 107.170 spur-split 788 788 P_____P__PP_P_ SH271973 -18.8699 107.142 -1 -18.7867 107.064 40 90 952 -18.8126 107.027 TC 90 953 -18.8689 107.141 4 -18.8121 107.500 TC 95 953 14 265
1973061S10155 1973 31 SI WA MADGE 1973-03-12 22:00:00 TS -18.8641 106.934 90 953 bom spur-split 810 810 P_____O__PP_P_ SH271973 -18.9065 106.925 -1 -18.8000 106.800 40 90 953 5.50000 -18.8297 106.774 TC 90 953 -18.9126 106.913 4 -18.8292 107.269 TC 95 953 124 124 13 261
1973061S10155 1973 31 SI WA MADGE 1973-03-13 00:00:00 TS -18.9423 106.482 spur-split 846 846 O_____P__OP_O_ jtwc_sh SH271973 -19.0000 106.500 -1 -18.8374 106.328 40 90 953 -18.9000 106.300 TC 90 954 -19.0163 106.464 4 -18.9000 106.800 TC 95 953 13 258
1973061S10155 1973 31 SI WA MADGE 1973-03-13 01:00:00 TS -18.9998 106.255 90 954 bom spur-split 858 858 P_____O__PP_P_ SH271973 -19.0526 106.284 -1 -18.9000 106.100 40 90 954 5.00000 5.50000 -18.9577 106.081 TC 90 954 -19.0754 106.246 4 -18.9606 106.538 TC 95 124 124 13 251
1973061S10155 1973 31 SI WA MADGE 1973-03-13 03:00:00 TS -19.1599 105.807 spur-split 894 894 P_____P__PP_P_ SH271973 -19.1775 105.863 -1 -19.1662 105.602 40 90 954 -19.1123 105.683 TC 90 954 -19.2053 105.828 4 -19.1203 106.005 TC 95 13 248
1973061S10155 1973 31 SI WA MADGE 1973-03-13 04:00:00 TS -19.2478 105.602 90 955 bom spur-split 913 908 P_____O__PP_P_ SH271973 -19.2479 105.663 -1 -19.3000 105.400 40 90 955 5.50000 -19.2036 105.506 TC 90 954 -19.2753 105.631 4 -19.2119 105.751 TC 95 124 124 12 244
1973061S10155 1973 31 SI WA MADGE 1973-03-13 06:00:00 TS -19.4086 105.256 spur-split 932 932 O_____P__OP_O_ jtwc_sh SH271973 -19.4000 105.300 -1 -19.4283 105.170 40 90 955 -19.4000 105.200 TC 90 955 -19.4231 105.266 4 -19.4000 105.300 TC 95 10 242
1973061S10155 1973 31 SI WA MADGE 1973-03-13 07:00:00 TS -19.4896 105.112 90 955 bom spur-split 947 947 P_____O__PO_P_ SH271973 -19.4775 105.139 -1 -19.5000 105.100 40 90 955 5.50000 -19.4993 105.074 TC 89 955 -19.5000 105.100 2 50 -19.4830 105.121 TC 95 124 124 9 233
1973061S10155 1973 31 SI WA MADGE 1973-03-13 09:00:00 TS -19.6804 104.869 spur-split 958 958 P_____P__PP_P_ SH271973 -19.6423 104.855 -1 -19.7716 104.977 40 86 956 -19.7072 104.870 TC 87 956 -19.6694 104.825 2 -19.6495 104.832 TC 95 9 229
1973061S10155 1973 31 SI WA MADGE 1973-03-13 10:00:00 TS -19.7763 104.759 85 957 bom spur-split 964 964 P_____O__PP_P_ SH271973 -19.7277 104.729 -1 -19.9000 104.900 40 85 957 5.00000 -19.8101 104.781 TC 86 956 -19.7594 104.705 2 -19.7330 104.713 TC 95 119 119 8 229
1973061S10155 1973 31 SI WA MADGE 1973-03-13 12:00:00 TS -19.9480 104.538 spur-split 989 986 O_____P__OP_O_ jtwc_sh SH271973 -19.9000 104.500 -1 -20.0442 104.636 40 85 957 -20.0000 104.600 TC 85 958 -19.9438 104.489 2 -19.9000 104.500 TC 95 8 231
1973061S10155 1973 31 SI WA MADGE 1973-03-13 13:00:00 TS -20.0307 104.425 85 958 bom spur-split 996 992 P_____O__PP_P_ SH271973 -19.9885 104.391 -1 -20.1000 104.500 40 85 958 5.00000 -20.0833 104.489 TC 85 958 -20.0356 104.390 2 -19.9885 104.391 TC 94 119 119 8 230
1973061S10155 1973 31 SI WA MADGE 1973-03-13 15:00:00 TS -20.1950 104.223 spur-split 1009 1009 P_____P__PP_P_ SH271973 -20.1648 104.192 -1 -20.2333 104.302 40 81 958 -20.2300 104.257 TC 85 959 -20.2120 104.200 2 -20.1648 104.192 TC 92 7 230
1973061S10155 1973 31 SI WA MADGE 1973-03-13 16:00:00 TS -20.2724 104.122 80 959 bom spur-split 1015 1015 P_____O__PP_P_ SH271973 -20.2490 104.097 -1 -20.3000 104.200 40 80 959 5.00000 -20.2933 104.139 TC 85 959 -20.2940 104.105 2 -20.2490 104.097 TC 91 110 110 7 233
1973061S10155 1973 31 SI WA MADGE 1973-03-13 18:00:00 TS -20.4147 103.908 spur-split 1032 1032 O_____P__OP_O_ jtwc_sh SH271973 -20.4000 103.900 -1 -20.4491 103.939 40 80 959 -20.4000 103.900 TC 85 960 -20.4393 103.907 2 -20.4000 103.900 TC 90 7 236
1973061S10155 1973 31 SI WA MADGE 1973-03-13 19:00:00 TS -20.4758 103.795 80 960 bom spur-split 1039 1039 P_____O__PO_P_ SH271973 -20.4692 103.794 -1 -20.5000 103.800 40 80 960 5.00000 -20.4473 103.789 TC 84 960 -20.5000 103.800 4 -20.4692 103.794 TC 90 110 110 7 246
1973061S10155 1973 31 SI WA MADGE 1973-03-13 21:00:00 TS -20.5623 103.563 spur-split 1057 1057 P_____P__PP_P_ SH271973 -20.5874 103.573 -1 -20.5030 103.525 40 80 961 -20.5223 103.565 TC 82 962 -20.5862 103.571 4 -20.5874 103.573 TC 90 7 250
1973061S10155 1973 31 SI WA MADGE 1973-03-13 22:00:00 TS -20.5957 103.444 80 962 bom spur-split 1077 1077 P_____O__PP_P_ SH271973 -20.6344 103.455 -1 -20.5000 103.400 40 80 962 5.00000 -20.5519 103.449 TC 81 962 -20.6187 103.452 4 -20.6344 103.455 TC 90 110 110 7 255
1973061S10155 1973 31 SI WA MADGE 1973-03-14 00:00:00 TS -20.6557 103.201 spur-split 1095 1095 O_____P__OP_O_ jtwc_sh SH271973 -20.7000 103.200 -1 -20.5691 103.202 40 80 963 -20.6000 103.200 TC 80 964 -20.6654 103.202 4 -20.7000 103.200 TC 90 7 257
1973061S10155 1973 31 SI WA MADGE 1973-03-14 01:00:00 TS -20.6761 103.076 80 964 bom spur-split 1105 1105 P_____O__PP_P_ SH271973 -20.7170 103.072 -1 -20.6000 103.100 40 80 964 4.00000 5.00000 -20.6249 103.072 TC 78 964 -20.6808 103.069 4 -20.7170 103.072 TC 89 110 110 7 265
1973061S10155 1973 31 SI WA MADGE 1973-03-14 03:00:00 TS -20.6879 102.803 spur-split 1135 1135 P_____P__PP_P_ SH271973 -20.7222 102.795 -1 -20.5975 102.855 40 76 966 -20.6647 102.795 TC 75 967 -20.6988 102.783 4 -20.7222 102.795 TC 87 8 268
1973061S10155 1973 31 SI WA MADGE 1973-03-14 04:00:00 TS -20.6884 102.649 75 967 bom spur-split 1155 1155 P_____O__PP_P_ SH271973 -20.7160 102.642 -1 -20.6000 102.700 40 75 967 4.50000 -20.6797 102.642 TC 73 967 -20.7026 102.627 4 -20.7160 102.642 TC 86 104 104 9 269
1973061S10155 1973 31 SI WA MADGE 1973-03-14 06:00:00 TS -20.6953 102.301 spur-split 1186 1186 O_____P__OP_O_ jtwc_sh SH271973 -20.7000 102.300 -1 -20.6691 102.319 40 71 969 -20.7000 102.300 TC 70 970 -20.7026 102.287 4 -20.7000 102.300 TC 85 10 268
1973061S10155 1973 31 SI WA MADGE 1973-03-14 07:00:00 TS -20.7027 102.108 70 970 bom spur-split 1206 1206 P_____O__PO_P_ SH271973 -20.7026 102.111 -1 -20.7000 102.100 40 70 970 4.50000 -20.7083 102.111 TC 68 971 -20.7000 102.100 4 -20.7026 102.111 TC 85 99 99 12 269
1973061S10155 1973 31 SI WA MADGE 1973-03-14 09:00:00 TS -20.7089 101.686 spur-split 1247 1247 P_____P__PP_P_ SH271973 -20.7074 101.695 -1 -20.7054 101.631 40 66 972 -20.7149 101.695 TC 65 974 -20.7108 101.704 4 -20.7074 101.695 TC 85 12 269
1973061S10155 1973 31 SI WA MADGE 1973-03-14 10:00:00 TS -20.7082 101.462 65 974 bom spur-split 1267 1267 P_____O__PP_P_ SH271973 -20.7078 101.471 -1 -20.7000 101.400 40 65 974 4.50000 -20.7132 101.471 TC 63 975 -20.7125 101.490 4 -20.7078 101.471 TC 85 89 89 13 271
1973061S10155 1973 31 SI WA MADGE 1973-03-14 12:00:00 TS -20.7013 101.006 spur-split 1318 1318 O_____P__OP_O_ jtwc_sh SH271973 -20.7000 101.000 -1 -20.6999 101.002 40 61 976 -20.7000 101.000 TC 60 978 -20.7081 101.034 4 -20.7000 101.000 TC 85 13 271
1973061S10155 1973 31 SI WA MADGE 1973-03-14 13:00:00 TS -20.6942 100.778 60 978 bom spur-split 1339 1339 P_____O__PP_P_ SH271973 -20.6915 100.769 -1 -20.7000 100.800 30 60 978 4.00000 -20.6888 100.769 TC 59 978 -20.7017 100.793 4 -20.6915 100.769 TC 84 84 84 13 272
1973061S10155 1973 31 SI WA MADGE 1973-03-14 15:00:00 TS -20.6731 100.299 spur-split 1390 1390 P_____P__PP_P_ SH271973 -20.6645 100.288 -1 -20.7078 100.355 30 56 980 -20.6570 100.287 TC 57 980 -20.6803 100.287 4 -20.6645 100.288 TC 82 14 273
1973061S10155 1973 31 SI WA MADGE 1973-03-14 16:00:00 TS -20.6570 100.044 55 982 bom spur-split 1420 1420 P_____O__PP_P_ SH271973 -20.6462 100.035 -1 -20.7000 100.100 30 55 982 4.00000 -20.6383 100.035 TC 56 981 -20.6651 100.024 4 -20.6462 100.035 TC 81 75 75 15 275
1973061S10155 1973 31 SI WA MADGE 1973-03-14 18:00:00 TS -20.6093 99.4972 spur-split 1473 1473 O_____P__OP_O_ jtwc_sh SH271973 -20.6000 99.5000 -1 -20.6309 99.5029 30 55 982 -20.6000 99.5000 TC 55 983 -20.6250 99.4800 4 -20.6000 99.5000 TC 80 16 275
1973061S10155 1973 31 SI WA MADGE 1973-03-14 19:00:00 TS -20.5856 99.2115 55 983 bom spur-split 1504 1504 P_____O__PO_P_ SH271973 -20.5749 99.2172 -1 -20.6000 99.2000 30 55 983 4.00000 -20.5885 99.2173 TC 55 983 -20.6000 99.2000 4 -20.5749 99.2172 TC 80 75 75 16 275
1973061S10155 1973 31 SI WA MADGE 1973-03-14 21:00:00 TS -20.5433 98.6306 spur-split 1567 1567 P_____P__PP_P_ SH271973 -20.5149 98.6226 -1 -20.6101 98.6772 30 55 983 -20.5649 98.6228 TC 55 984 -20.5402 98.6160 4 -20.5149 98.6226 TC 80 17 275
1973061S10155 1973 31 SI WA MADGE 1973-03-14 22:00:00 TS -20.5156 98.3298 55 984 bom spur-split 1598 1598 P_____O__PP_P_ SH271973 -20.4799 98.3164 -1 -20.6000 98.4000 30 55 984 4.00000 -20.5490 98.3166 TC 55 984 -20.5048 98.3132 4 -20.4799 98.3164 TC 80 75 75 17 277
1973061S10155 1973 31 SI WA MADGE 1973-03-15 00:00:00 TS -20.4324 97.7053 spur-split 1662 1662 O_____P__OP_O_ jtwc_sh SH271973 -20.4000 97.7000 -1 -20.4697 97.7362 30 55 984 -20.5000 97.7000 TC 55 985 -20.4250 97.6954 4 -20.4000 97.7000 TC 80 18 279
1973061S10155 1973 31 SI WA MADGE 1973-03-15 01:00:00 TS -20.3840 97.3943 55 985 bom spur-split 1692 1692 P_____O__PP_P_ SH271973 -20.3529 97.3947 -1 -20.4000 97.4000 30 55 985 4.00000 -20.4638 97.3974 TC 54 985 -20.3816 97.3841 4 -20.3529 97.3947 TC 79 75 75 18 279
1973061S10155 1973 31 SI WA MADGE 1973-03-15 03:00:00 TS -20.2911 96.7847 spur-split 1756 1756 P_____P__PP_P_ SH271973 -20.2498 96.7849 -1 -20.3357 96.7947 30 51 985 -20.3721 96.7925 TC 52 986 -20.2897 96.7661 4 -20.2498 96.7849 TC 77 17 279
1973061S10155 1973 31 SI WA MADGE 1973-03-15 04:00:00 TS -20.2421 96.4846 50 986 bom spur-split 1769 1769 P_____O__PP_P_ SH271973 -20.1973 96.4841 -1 -20.3000 96.5000 30 50 986 3.50000 -20.3185 96.4921 TC 51 986 -20.2423 96.4631 4 -20.1973 96.4841 TC 76 69 69 17 281
1973061S10155 1973 31 SI WA MADGE 1973-03-15 06:00:00 TS -20.1365 95.8964 spur-split 1795 1795 O_____P__OP_O_ jtwc_sh SH271973 -20.1000 95.9000 -1 -20.1720 95.9000 30 50 986 -20.2000 95.9000 TC 50 987 -20.1469 95.8782 4 -20.1000 95.9000 TC 75 17 281
1973061S10155 1973 31 SI WA MADGE 1973-03-15 07:00:00 TS -20.0873 95.6050 50 987 bom spur-split 1813 1813 P_____O__PO_P_ SH271973 -20.0634 95.6142 -1 -20.1000 95.6000 30 50 987 3.50000 -20.1339 95.5873 TC 49 987 -20.1000 95.6000 4 -20.0634 95.6142 TC 74 69 69 16 280
1973061S10155 1973 31 SI WA MADGE 1973-03-15 09:00:00 TS -19.9931 95.0354 spur-split 1842 1842 P_____P__PP_P_ SH271973 -19.9997 95.0629 -1 -19.9666 94.9921 30 50 988 -19.9928 94.9748 TC 47 988 -20.0003 95.0568 4 -19.9997 95.0629 TC 72 16 280
1973061S10155 1973 31 SI WA MADGE 1973-03-15 10:00:00 TS -19.9466 94.7637 50 989 bom spur-split 1847 1847 P_____O__PP_P_ SH271973 -19.9689 94.7991 -1 -19.9000 94.7000 30 50 989 3.50000 -19.9232 94.6899 TC 46 988 -19.9499 94.7954 4 -19.9689 94.7991 TC 71 69 69 15 281
1973061S10155 1973 31 SI WA MADGE 1973-03-15 12:00:00 TS -19.8517 94.2585 spur-split 1880 1878 O_____P__OP_O_ jtwc_sh SH271973 -19.9000 94.3000 -1 -19.7587 94.1533 30 46 989 -19.8000 94.2000 TC 45 990 -19.8513 94.2975 4 -19.9000 94.3000 TC 70 14 282
1973061S10155 1973 31 SI WA MADGE 1973-03-15 13:00:00 TS -19.7995 94.0233 45 990 bom spur-split 1892 1892 P_____O__PP_P_ SH271973 -19.8477 94.0504 -1 -19.7000 93.9000 30 45 990 3.00000 -19.7495 94.0260 TC 44 990 -19.8044 94.0625 4 -19.8477 94.0504 TC 69 64 64 13 283
1973061S10155 1973 31 SI WA MADGE 1973-03-15 15:00:00 TS -19.7021 93.5805 spur-split 1912 1912 P_____P__PP_P_ SH271973 -19.7349 93.5823 -1 -19.6201 93.3489 30 41 992 -19.6691 93.7628 TC 42 991 -19.7189 93.6246 4 -19.7349 93.5823 TC 67 12 283
1973061S10155 1973 31 SI WA MADGE 1973-03-15 16:00:00 TS -19.6610 93.3969 40 994 bom spur-split 1926 1925 P_____O__PP_P_ SH271973 -19.6817 93.3695 -1 -19.6000 93.2000 30 40 994 3.00000 -19.6392 93.6496 TC 41 991 -19.6817 93.4233 4 -19.6817 93.3695 TC 66 55 55 8 284
1973061S10155 1973 31 SI WA MADGE 1973-03-15 18:00:00 TS -19.6026 93.1528 spur-split 1932 1932 O_____P__OP_O_ jtwc_sh SH271973 -19.6000 93.0000 -1 -19.5944 93.4563 30 36 993 -19.6000 93.4000 TC 40 993 -19.6215 93.0602 4 -19.6000 93.0000 TC 65 7 282
1973061S10155 1973 31 SI WA MADGE 1973-03-15 19:00:00 TS -19.5877 93.0206 35 993 bom spur-split 1947 1947 P_____O__PO_P_ SH271973 -19.5800 92.8414 -1 -19.6000 93.5000 30 35 993 3.00000 -19.5862 93.1993 TC 39 993 -19.6000 92.9000 4 -19.5800 92.8414 TC 64 49 49 9 273
1973061S10155 1973 31 SI WA MADGE 1973-03-15 21:00:00 TS -19.5782 92.6510 spur-split 1969 1969 P_____P__PP_P_ SH271973 -19.5697 92.5827 -1 -19.6007 92.7795 30 35 994 -19.5781 92.7626 TC 37 994 -19.5813 92.6155 4 -19.5697 92.5827 TC 62 10 271
1973061S10155 1973 31 SI WA MADGE 1973-03-15 22:00:00 TS -19.5815 92.4795 35 995 bom spur-split 1984 1984 P_____O__PP_P_ SH271973 -19.5756 92.4772 -1 -19.6000 92.4000 30 35 995 3.00000 -19.5817 92.5507 TC 36 994 -19.5805 92.4946 4 -19.5756 92.4772 TC 61 49 49 7 267
1973061S10155 1973 31 SI WA MADGE 1973-03-16 00:00:00 TS -19.5987 92.2549 spur-split 1999 1999 O_____P__OP_O_ jtwc_sh SH271973 -19.6000 92.3000 -1 -19.5998 92.1408 30 31 995 -19.6000 92.2000 TC 35 996 -19.5922 92.2887 4 -19.6000 92.3000 TC 60 6 264
1973061S10155 1973 31 SI WA MADGE 1973-03-16 01:00:00 TS -19.6095 92.1752 30 996 bom spur-split 2006 2006 P_____O__PP_P_ SH271973 -19.6135 92.2162 -1 -19.6000 92.1000 20 30 996 2.00000 2.50000 -19.6133 92.1012 TC 34 996 -19.6034 92.2010 4 -19.6135 92.2162 TC 59 45 45 4 259
1973061S10155 1973 31 SI WA MADGE 1973-03-16 03:00:00 TS -19.6374 92.0503 spur-split 2014 2014 P_____P__PP_P_ SH271973 -19.6499 92.0775 -1 -19.5921 92.0304 20 30 996 -19.6496 91.9900 TC 32 997 -19.6329 92.0489 4 -19.6499 92.0775 TC 57 3 255
1973061S10155 1973 31 SI WA MADGE 1973-03-16 04:00:00 TS -19.6543 91.9987 30 997 bom spur-split 2029 2029 P_____O__PP_P_ SH271973 -19.6690 92.0171 -1 -19.6000 92.0000 20 30 997 2.50000 -19.6688 91.9590 TC 31 997 -19.6497 91.9818 4 -19.6690 92.0171 TC 56 45 45 3 250
1973061S10155 1973 31 SI WA MADGE 1973-03-16 06:00:00 TS -19.6922 91.8885 spur-split 2037 2037 O_____P__OP_O_ jtwc_sh SH271973 -19.7000 91.9000 -1 -19.6691 91.8721 20 30 998 -19.7000 91.9000 TC 30 999 -19.6840 91.8587 4 -19.7000 91.9000 TC 55 3 254
1973061S10155 1973 31 SI WA MADGE 1973-03-16 07:00:00 TS -19.7021 91.8219 30 999 bom spur-split 2044 2044 P_____O__PO_P_ SH271973 -19.7031 91.8307 -1 -19.7000 91.8000 20 30 999 2.50000 -19.7031 91.8390 TC 30 999 -19.7000 91.8000 4 -19.7031 91.8307 TC 54 45 45 4 267
1973061S10155 1973 31 SI WA MADGE 1973-03-16 09:00:00 TS -19.7028 91.6849 spur-split 2052 2052 P_____P__PP_P_ SH271973 -19.7000 91.6925 -1 -19.7054 91.6667 20 26 999 -19.7000 91.7075 TC 30 1000 -19.7113 91.6578 4 -19.7000 91.6925 TC 52 4 270
1973061S10155 1973 31 SI WA MADGE 1973-03-16 10:00:00 TS -19.7011 91.6178 25 1000 bom spur-split 2060 2060 P_____O__PP_P_ SH271973 -19.6975 91.6254 -1 -19.7000 91.6000 20 25 1000 2.00000 -19.6975 91.6387 TC 30 1000 -19.7167 91.5921 4 -19.6975 91.6254 TC 51 45 45 4 270
1973061S10155 1973 31 SI WA MADGE 1973-03-16 12:00:00 TS -19.7034 91.4894 spur-split 2067 2067 O_____P__OP_O_ jtwc_sh SH271973 -19.7000 91.5000 -1 -19.6921 91.4667 20 25 1000 -19.7000 91.5000 TC 30 1001 -19.7282 91.4697 4 -19.7000 91.5000 TC 50 4 266
1973061S10155 1973 31 SI WA MADGE 1973-03-16 13:00:00 TS -19.7126 91.4306 25 1001 bom spur-split 2075 2075 P_____O__PP_P_ SH271973 -19.7109 91.4469 -1 -19.7000 91.4000 20 25 1001 2.00000 -19.7083 91.4307 TC 29 1001 -19.7348 91.4124 4 -19.7109 91.4469 TC 48 45 45 3 255
1973061S10155 1973 31 SI WA MADGE 1973-03-16 15:00:00 TS -19.7470 91.3175 spur-split 2083 2083 P_____P__PP_P_ SH271973 -19.7424 91.3500 -1 -19.7691 91.2588 20 25 1001 -19.7350 91.2925 TC 27 1002 -19.7507 91.3036 4 -19.7424 91.3500 TC 45 3 251
1973061S10155 1973 31 SI WA MADGE 1973-03-16 16:00:00 TS -19.7662 91.2640 25 1002 bom spur-split 2090 2090 P_____O__PP_P_ SH271973 -19.7612 91.3025 -1 -19.8000 91.2000 20 25 1002 2.00000 -19.7533 91.2254 TC 26 1002 -19.7605 91.2515 4 -19.7612 91.3025 TC 43 45 45 3 251
1973061S10155 1973 31 SI WA MADGE 1973-03-16 18:00:00 TS -19.7971 91.1643 spur-split 2098 2098 O_____P__OP_O_ jtwc_sh SH271973 -19.8000 91.2000 -1 -19.7975 91.1358 20 25 1002 -19.8000 91.1000 TC 25 1003 -19.7849 91.1500 4 -19.8000 91.2000 TC 40 3 253
1973061S10155 1973 31 SI WA MADGE 1973-03-16 19:00:00 TS -19.8121 91.1072 25 1003 bom spur-split 2106 2106 P_____O__PO_P_ SH271973 -19.8141 91.1338 -1 -19.8000 91.1000 20 25 1003 1.50000 -19.8302 91.0417 TC 24 1003 -19.8000 91.1000 4 -19.8141 91.1338 TC 39 45 45 4 251
1973061S10155 1973 31 SI WA MADGE 1973-03-16 21:00:00 TS -19.8554 90.9833 spur-split 2121 2121 P_____P__PP_P_ SH271973 -19.8425 90.9925 -1 -19.8612 90.9642 20 25 1003 -19.9000 90.9350 TC 22 1003 -19.8435 91.0231 4 -19.8425 90.9925 TC 37 4 249
1973061S10155 1973 31 SI WA MADGE 1973-03-16 22:00:00 TS -19.8801 90.9238 25 1004 bom spur-split 2129 2129 P_____O__PP_P_ SH271973 -19.8588 90.9230 -1 -19.9000 90.9000 20 25 1004 1.50000 -19.9358 90.8867 TC 21 1003 -19.8683 90.9875 4 -19.8588 90.9230 TC 36 45 45 3 243
1973061S10155 1973 31 SI WA MADGE 1973-03-17 00:00:00 TS -19.9327 90.8238 spur-split 2137 2137 O_____P__OP_O_ jtwc_sh SH271973 -19.9000 90.8000 -1 -19.9746 90.8279 20 25 1004 -20.0000 90.8000 TC 20 1004 -19.9216 90.9148 4 -19.9000 90.8000 TC 35 3 237
1973061S10155 1973 31 SI WA MADGE 1973-03-17 01:00:00 TS -19.9604 90.7902 25 1004 bom spur-split 2144 2144 P_____O__PP_P_ SH271973 -19.9302 90.7657 -1 -20.0000 90.8000 20 25 1004 1.50000 1.50000 -20.0223 90.7688 TC 19 1004 -19.9492 90.8749 4 -19.9302 90.7657 TC 34 45 45 2 229
1973061S10155 1973 31 SI WA MADGE 1973-03-17 03:00:00 TS -20.0098 90.7304 spur-split 2152 2152 P_____P__PP_P_ SH271973 -19.9999 90.7150 -1 -19.9975 90.7412 20 25 1004 -20.0574 90.7150 TC 17 1005 -20.0042 90.7814 4 -19.9999 90.7150 TC 32 2 231
1973061S10155 1973 31 SI WA MADGE 1973-03-17 04:00:00 TS -20.0349 90.6953 25 1005 bom spur-split 2152 2152 P_____O__PP_P_ SH271973 -20.0357 90.6874 -1 -20.0000 90.7000 20 25 1005 1.50000 -20.0720 90.6849 TC 16 1005 -20.0306 90.7250 4 -20.0357 90.6874 TC 31 45 45 3 237
1973061S10155 1973 31 SI WA MADGE 1973-03-17 06:00:00 TS -20.0914 90.5943 spur-split 2167 2167 O_____P__OP_O_ jtwc_sh SH271973 -20.1000 90.6000 -1 -20.0691 90.5800 20 25 1005 -20.1000 90.6000 TC 15 1006 -20.0790 90.5856 4 -20.1000 90.6000 TC 30 4 243
1973061S10155 1973 31 SI WA MADGE 1973-03-17 07:00:00 TS -20.1157 90.5249 25 1006 bom spur-split 2175 2175 P_____O__PO_P_ SH271973 -20.1250 90.5333 -1 -20.1000 90.5000 20 25 1006 1.50000 -20.1192 90.5495 TC 15 1006 -20.1000 90.5000 4 -20.1250 90.5333 TC 29 45 45 5 257
1973061S10155 1973 31 SI WA MADGE 1973-03-17 09:00:00 TS -20.1473 90.3467 spur-split 2191 2191 P_____P__PP_P_ SH271973 -20.1649 90.3600 -1 -20.0976 90.2896 20 25 1006 -20.1573 90.4175 TC 15 1007 -20.1343 90.2931 4 -20.1649 90.3600 TC 27 5 260
1973061S10155 1973 31 SI WA MADGE 1973-03-17 10:00:00 TS -20.1603 90.2440 25 1007 bom spur-split 2206 2206 P_____O__PP_P_ SH271973 -20.1799 90.2534 -1 -20.1000 90.2000 20 25 1007 1.50000 -20.1743 90.3304 TC 15 1007 -20.1479 90.1735 4 -20.1799 90.2534 TC 26 45 45 6 262
1973061S10155 1973 31 SI WA MADGE 1973-03-17 12:00:00 TS -20.1896 90.0282 spur-split 2222 2222 O_____P__OP_O_ jtwc_sh SH271973 -20.2000 90.0000 -1 -20.1690 90.1620 20 25 1008 -20.2000 90.1000 TC 15 1009 -20.1689 89.9071 4 -20.2000 90.0000 TC 25 7 263
1973061S10155 1973 31 SI MM MADGE 1973-03-17 13:00:00 TS -20.2001 89.8993 25 1009 bom spur-split 2230 2230 P_____O__PP_P_ SH271973 -20.2052 89.8537 -1 -20.2000 90.1000 20 25 1009 1.50000 -20.2081 89.9719 TC 15 1009 -20.1767 89.7625 4 -20.2052 89.8537 TC 24 45 45 8 268
1973061S10155 1973 31 SI MM MADGE 1973-03-17 15:00:00 TS -20.2049 89.5787 spur-split 2254 2254 P_____P__PP_P_ SH271973 -20.2079 89.5300 -1 -20.2055 89.7350 20 21 1009 -20.2144 89.6550 TC 15 1009 -20.1881 89.4555 4 -20.2079 89.5300 TC 22 9 270
1973061S10155 1973 31 SI MM MADGE 1973-03-17 16:00:00 TS -20.2038 89.4046 20 1009 bom spur-split 2270 2270 P_____O__PP_P_ SH271973 -20.2063 89.3570 -1 -20.2000 89.5000 20 20 1009 1.00000 -20.2128 89.4625 TC 15 1009 -20.1921 89.2953 4 -20.2063 89.3570 TC 21 45 45 11 271
1973061S10155 1973 31 SI MM MADGE 1973-03-17 18:00:00 TS -20.1996 89.0141 spur-split 2303 2303 O_____P__OP_O_ jtwc_sh SH271973 -20.2000 89.0000 -1 -20.1998 89.0625 20 20 1009 -20.2000 89.0000 TC 15 1010 -20.1978 88.9665 4 -20.2000 89.0000 TC 20 12 271
1973061S10155 1973 31 SI MM MADGE 1973-03-17 19:00:00 TS -20.1951 88.7677 20 1010 bom spur-split 2319 2319 ______O__PO___ SH271973 -1 -20.2000 88.8000 20 20 1010 1.00000 -20.1890 88.7274 TC 15 1010 -20.2000 88.8000 4 TC 45 45 17 271
1973061S10155 1973 31 SI MM MADGE 1973-03-17 21:00:00 TS -20.1870 88.1348 spur-split 2377 2377 ______P__P____ SH271973 -1 -20.2079 88.1497 20 20 1010 -20.1590 88.1148 TC 15 1011 4 TC 18 271
1973061S10155 1973 31 SI MM MADGE 1973-03-17 22:00:00 TS -20.1763 87.7938 20 1011 bom spur-split 2397 2397 ______O__P____ SH271973 -1 -20.2000 87.8000 20 20 1011 1.00000 -20.1408 87.7845 TC 15 1011 4 TC 45 45 19 274
1973061S10155 1973 31 SI MM MADGE 1973-03-18 00:00:00 TS -20.1276 87.1182 spur-split 2427 2427 ______P__O____ -1 -20.1414 87.1273 20 20 1011 -20.1000 87.1000 TC 15 1012 4 19 275
1973061S10155 1973 31 SI MM MADGE 1973-03-18 01:00:00 NR -20.1000 86.8000 20 1012 bom spur-split 2444 ______O_______ -1 -20.1000 86.8000 20 20 1012 1.00000 TC 4 45 45 18 275

デジタル台風データ・検索

IBTrACS Databaseについて

本データベースは、米国NOAAが公開する1842年以降の世界の熱帯低気圧のベストトラックデータアーカイブInternational Best Track Archive for Climate Stewardship (IBTrACS)を、ウェブで閲覧しやすい形式に変換したものです。

最終更新日:2021-10-08